sensor_id;sensor_type;location;lat;lon;timestamp;temperature;humidity
14170;DHT22;63889;50.596;8.690;2024-02-04T00:00:14;10.30;99.90
14170;DHT22;63889;50.596;8.690;2024-02-04T00:02:40;10.30;99.90
14170;DHT22;63889;50.596;8.690;2024-02-04T00:05:06;10.20;99.90
14170;DHT22;63889;50.596;8.690;2024-02-04T00:07:31;10.20;99.90
14170;DHT22;63889;50.596;8.690;2024-02-04T00:09:57;10.20;99.90
14170;DHT22;63889;50.596;8.690;2024-02-04T00:12:22;10.20;99.90
14170;DHT22;63889;50.596;8.690;2024-02-04T00:14:48;10.20;99.90
14170;DHT22;63889;50.596;8.690;2024-02-04T00:17:17;10.20;99.90
14170;DHT22;63889;50.596;8.690;2024-02-04T00:19:42;10.20;99.90
14170;DHT22;63889;50.596;8.690;2024-02-04T00:22:08;10.20;99.90
14170;DHT22;63889;50.596;8.690;2024-02-04T00:24:34;10.30;99.90
14170;DHT22;63889;50.596;8.690;2024-02-04T00:26:59;10.30;99.90
14170;DHT22;63889;50.596;8.690;2024-02-04T00:29:25;10.30;99.90
14170;DHT22;63889;50.596;8.690;2024-02-04T00:31:50;10.30;99.90
14170;DHT22;63889;50.596;8.690;2024-02-04T00:34:16;10.30;99.90
14170;DHT22;63889;50.596;8.690;2024-02-04T00:36:42;10.30;99.90
14170;DHT22;63889;50.596;8.690;2024-02-04T00:39:07;10.30;99.90
14170;DHT22;63889;50.596;8.690;2024-02-04T00:41:34;10.30;99.90
14170;DHT22;63889;50.596;8.690;2024-02-04T00:44:00;10.30;99.90
14170;DHT22;63889;50.596;8.690;2024-02-04T00:46:26;10.30;99.90
14170;DHT22;63889;50.596;8.690;2024-02-04T00:48:51;10.40;99.90
14170;DHT22;63889;50.596;8.690;2024-02-04T00:51:17;10.40;99.90
14170;DHT22;63889;50.596;8.690;2024-02-04T00:53:46;10.40;99.90
14170;DHT22;63889;50.596;8.690;2024-02-04T00:56:12;10.40;99.90
14170;DHT22;63889;50.596;8.690;2024-02-04T00:58:38;10.40;99.90
14170;DHT22;63889;50.596;8.690;2024-02-04T01:01:04;10.30;99.90
14170;DHT22;63889;50.596;8.690;2024-02-04T01:03:31;10.30;99.90
14170;DHT22;63889;50.596;8.690;2024-02-04T01:05:56;10.30;99.90
14170;DHT22;63889;50.596;8.690;2024-02-04T01:08:22;10.30;99.90
14170;DHT22;63889;50.596;8.690;2024-02-04T01:10:48;10.30;99.90
14170;DHT22;63889;50.596;8.690;2024-02-04T01:13:16;10.30;99.90
14170;DHT22;63889;50.596;8.690;2024-02-04T01:15:41;10.30;99.90
14170;DHT22;63889;50.596;8.690;2024-02-04T01:18:07;10.40;99.90
14170;DHT22;63889;50.596;8.690;2024-02-04T01:20:33;10.40;99.90
14170;DHT22;63889;50.596;8.690;2024-02-04T01:22:58;10.40;99.90
14170;DHT22;63889;50.596;8.690;2024-02-04T01:25:24;10.40;99.90
14170;DHT22;63889;50.596;8.690;2024-02-04T01:27:49;10.40;99.90
14170;DHT22;63889;50.596;8.690;2024-02-04T01:30:15;10.40;99.90
14170;DHT22;63889;50.596;8.690;2024-02-04T01:32:40;10.30;99.90
14170;DHT22;63889;50.596;8.690;2024-02-04T01:35:06;10.30;99.90
14170;DHT22;63889;50.596;8.690;2024-02-04T01:37:32;10.40;99.90
14170;DHT22;63889;50.596;8.690;2024-02-04T01:39:57;10.40;99.90
14170;DHT22;63889;50.596;8.690;2024-02-04T01:42:23;10.30;99.90
14170;DHT22;63889;50.596;8.690;2024-02-04T01:44:48;10.30;99.90
14170;DHT22;63889;50.596;8.690;2024-02-04T01:47:14;10.20;99.90
14170;DHT22;63889;50.596;8.690;2024-02-04T01:49:40;10.20;99.90
14170;DHT22;63889;50.596;8.690;2024-02-04T01:52:06;10.20;99.90
14170;DHT22;63889;50.596;8.690;2024-02-04T01:54:32;10.20;99.90
14170;DHT22;63889;50.596;8.690;2024-02-04T01:56:58;10.20;99.90
14170;DHT22;63889;50.596;8.690;2024-02-04T01:59:27;10.20;99.90
14170;DHT22;63889;50.596;8.690;2024-02-04T02:01:57;10.20;99.90
14170;DHT22;63889;50.596;8.690;2024-02-04T02:04:24;10.20;99.90
14170;DHT22;63889;50.596;8.690;2024-02-04T02:06:51;10.10;99.90
14170;DHT22;63889;50.596;8.690;2024-02-04T02:09:17;10.10;99.90
14170;DHT22;63889;50.596;8.690;2024-02-04T02:11:51;10.20;99.90
14170;DHT22;63889;50.596;8.690;2024-02-04T02:14:22;10.20;99.90
14170;DHT22;63889;50.596;8.690;2024-02-04T02:16:48;10.10;99.90
14170;DHT22;63889;50.596;8.690;2024-02-04T02:19:44;10.10;99.90
14170;DHT22;63889;50.596;8.690;2024-02-04T02:22:17;10.10;99.90
14170;DHT22;63889;50.596;8.690;2024-02-04T02:24:45;10.20;99.90
14170;DHT22;63889;50.596;8.690;2024-02-04T02:27:12;10.20;99.90
14170;DHT22;63889;50.596;8.690;2024-02-04T02:29:37;10.20;99.90
14170;DHT22;63889;50.596;8.690;2024-02-04T02:32:03;10.10;99.90
14170;DHT22;63889;50.596;8.690;2024-02-04T02:34:30;10.10;99.90
14170;DHT22;63889;50.596;8.690;2024-02-04T02:42:22;10.00;99.90
14170;DHT22;63889;50.596;8.690;2024-02-04T02:44:49;10.00;99.90
14170;DHT22;63889;50.596;8.690;2024-02-04T02:47:15;10.00;99.90
14170;DHT22;63889;50.596;8.690;2024-02-04T02:49:42;10.00;99.90
14170;DHT22;63889;50.596;8.690;2024-02-04T02:52:07;10.00;99.90
14170;DHT22;63889;50.596;8.690;2024-02-04T02:54:33;10.00;99.90
14170;DHT22;63889;50.596;8.690;2024-02-04T02:56:58;10.00;99.90
14170;DHT22;63889;50.596;8.690;2024-02-04T02:59:24;10.00;99.90
14170;DHT22;63889;50.596;8.690;2024-02-04T03:01:49;10.00;99.90
14170;DHT22;63889;50.596;8.690;2024-02-04T03:04:15;10.10;99.90
14170;DHT22;63889;50.596;8.690;2024-02-04T03:06:40;10.10;99.90
14170;DHT22;63889;50.596;8.690;2024-02-04T03:09:06;10.10;99.90
14170;DHT22;63889;50.596;8.690;2024-02-04T03:11:31;10.10;99.90
14170;DHT22;63889;50.596;8.690;2024-02-04T03:13:57;10.00;99.90
14170;DHT22;63889;50.596;8.690;2024-02-04T03:16:23;10.00;99.90
14170;DHT22;63889;50.596;8.690;2024-02-04T03:18:48;9.90;99.90
14170;DHT22;63889;50.596;8.690;2024-02-04T03:21:15;9.80;99.90
14170;DHT22;63889;50.596;8.690;2024-02-04T03:23:44;9.90;99.90
14170;DHT22;63889;50.596;8.690;2024-02-04T03:26:10;9.90;99.90
14170;DHT22;63889;50.596;8.690;2024-02-04T03:28:37;9.90;99.90
14170;DHT22;63889;50.596;8.690;2024-02-04T03:31:02;10.00;99.90
14170;DHT22;63889;50.596;8.690;2024-02-04T03:33:28;10.00;99.90
14170;DHT22;63889;50.596;8.690;2024-02-04T03:35:54;10.00;99.90
14170;DHT22;63889;50.596;8.690;2024-02-04T03:38:19;10.10;99.90
14170;DHT22;63889;50.596;8.690;2024-02-04T03:40:45;10.00;99.90
14170;DHT22;63889;50.596;8.690;2024-02-04T03:43:11;10.10;99.90
14170;DHT22;63889;50.596;8.690;2024-02-04T03:45:37;10.00;99.90
14170;DHT22;63889;50.596;8.690;2024-02-04T03:48:03;10.00;99.90
14170;DHT22;63889;50.596;8.690;2024-02-04T03:50:28;10.10;99.90
14170;DHT22;63889;50.596;8.690;2024-02-04T03:52:54;10.10;99.90
14170;DHT22;63889;50.596;8.690;2024-02-04T03:55:20;10.00;99.90
14170;DHT22;63889;50.596;8.690;2024-02-04T03:57:45;10.10;99.90
14170;DHT22;63889;50.596;8.690;2024-02-04T04:00:11;10.00;99.90
14170;DHT22;63889;50.596;8.690;2024-02-04T04:02:37;10.00;99.90
14170;DHT22;63889;50.596;8.690;2024-02-04T04:05:03;10.00;99.90
14170;DHT22;63889;50.596;8.690;2024-02-04T04:07:29;10.00;99.90
14170;DHT22;63889;50.596;8.690;2024-02-04T04:09:54;10.00;99.90
14170;DHT22;63889;50.596;8.690;2024-02-04T04:12:20;10.00;99.90
14170;DHT22;63889;50.596;8.690;2024-02-04T04:14:45;10.00;99.90
14170;DHT22;63889;50.596;8.690;2024-02-04T04:17:11;10.00;99.90
14170;DHT22;63889;50.596;8.690;2024-02-04T04:19:36;10.00;99.90
14170;DHT22;63889;50.596;8.690;2024-02-04T04:22:03;9.90;99.90
14170;DHT22;63889;50.596;8.690;2024-02-04T04:24:28;9.80;99.90
14170;DHT22;63889;50.596;8.690;2024-02-04T04:26:54;9.80;99.90
14170;DHT22;63889;50.596;8.690;2024-02-04T04:29:20;9.80;99.90
14170;DHT22;63889;50.596;8.690;2024-02-04T04:31:46;9.80;99.90
14170;DHT22;63889;50.596;8.690;2024-02-04T04:34:11;9.80;99.90
14170;DHT22;63889;50.596;8.690;2024-02-04T04:36:37;9.90;99.90
14170;DHT22;63889;50.596;8.690;2024-02-04T04:39:03;9.80;99.90
14170;DHT22;63889;50.596;8.690;2024-02-04T04:41:28;9.80;99.90
14170;DHT22;63889;50.596;8.690;2024-02-04T04:43:54;9.80;99.90
14170;DHT22;63889;50.596;8.690;2024-02-04T04:46:20;9.90;99.90
14170;DHT22;63889;50.596;8.690;2024-02-04T04:48:45;9.80;99.90
14170;DHT22;63889;50.596;8.690;2024-02-04T04:51:11;9.80;99.90
14170;DHT22;63889;50.596;8.690;2024-02-04T04:53:37;9.90;99.90
14170;DHT22;63889;50.596;8.690;2024-02-04T04:56:03;9.90;99.90
14170;DHT22;63889;50.596;8.690;2024-02-04T04:58:29;9.90;99.90
14170;DHT22;63889;50.596;8.690;2024-02-04T05:00:55;9.90;99.90
14170;DHT22;63889;50.596;8.690;2024-02-04T05:03:20;9.80;99.90
14170;DHT22;63889;50.596;8.690;2024-02-04T05:05:46;9.80;99.90
14170;DHT22;63889;50.596;8.690;2024-02-04T05:08:13;9.80;99.90
14170;DHT22;63889;50.596;8.690;2024-02-04T05:10:39;9.80;99.90
14170;DHT22;63889;50.596;8.690;2024-02-04T05:13:05;9.90;99.90
14170;DHT22;63889;50.596;8.690;2024-02-04T05:15:30;9.90;99.90
14170;DHT22;63889;50.596;8.690;2024-02-04T05:17:56;9.80;99.90
14170;DHT22;63889;50.596;8.690;2024-02-04T05:20:21;9.80;99.90
14170;DHT22;63889;50.596;8.690;2024-02-04T05:22:47;9.90;99.90
14170;DHT22;63889;50.596;8.690;2024-02-04T05:25:13;9.80;99.90
14170;DHT22;63889;50.596;8.690;2024-02-04T05:27:39;9.80;99.90
14170;DHT22;63889;50.596;8.690;2024-02-04T05:30:05;9.80;99.90
14170;DHT22;63889;50.596;8.690;2024-02-04T05:32:31;9.80;99.90
14170;DHT22;63889;50.596;8.690;2024-02-04T05:34:56;9.80;99.90
14170;DHT22;63889;50.596;8.690;2024-02-04T05:37:22;9.90;99.90
14170;DHT22;63889;50.596;8.690;2024-02-04T05:39:48;9.90;99.90
14170;DHT22;63889;50.596;8.690;2024-02-04T05:42:13;9.80;99.90
14170;DHT22;63889;50.596;8.690;2024-02-04T05:44:39;9.80;99.90
14170;DHT22;63889;50.596;8.690;2024-02-04T05:47:04;9.80;99.90
14170;DHT22;63889;50.596;8.690;2024-02-04T05:49:30;9.80;99.90
14170;DHT22;63889;50.596;8.690;2024-02-04T05:51:55;9.70;99.90
14170;DHT22;63889;50.596;8.690;2024-02-04T05:54:21;9.70;99.90
14170;DHT22;63889;50.596;8.690;2024-02-04T05:56:47;9.70;99.90
14170;DHT22;63889;50.596;8.690;2024-02-04T05:59:12;9.70;99.90
14170;DHT22;63889;50.596;8.690;2024-02-04T06:01:38;9.60;99.90
14170;DHT22;63889;50.596;8.690;2024-02-04T06:04:03;9.60;99.90
14170;DHT22;63889;50.596;8.690;2024-02-04T06:06:29;9.60;99.90
14170;DHT22;63889;50.596;8.690;2024-02-04T06:08:55;9.70;99.90
14170;DHT22;63889;50.596;8.690;2024-02-04T06:11:20;9.70;99.90
14170;DHT22;63889;50.596;8.690;2024-02-04T06:13:46;9.70;99.90
14170;DHT22;63889;50.596;8.690;2024-02-04T06:16:11;9.70;99.90
14170;DHT22;63889;50.596;8.690;2024-02-04T06:18:38;9.70;99.90
14170;DHT22;63889;50.596;8.690;2024-02-04T06:21:07;9.80;99.90
14170;DHT22;63889;50.596;8.690;2024-02-04T06:23:33;9.80;99.90
14170;DHT22;63889;50.596;8.690;2024-02-04T06:26:00;9.80;99.90
14170;DHT22;63889;50.596;8.690;2024-02-04T06:28:25;9.80;99.90
14170;DHT22;63889;50.596;8.690;2024-02-04T06:30:51;9.80;99.90
14170;DHT22;63889;50.596;8.690;2024-02-04T06:33:17;9.80;99.90
14170;DHT22;63889;50.596;8.690;2024-02-04T06:35:43;9.80;99.90
14170;DHT22;63889;50.596;8.690;2024-02-04T06:38:08;9.80;99.90
14170;DHT22;63889;50.596;8.690;2024-02-04T06:40:34;9.80;99.90
14170;DHT22;63889;50.596;8.690;2024-02-04T06:42:59;9.90;99.90
14170;DHT22;63889;50.596;8.690;2024-02-04T06:45:25;9.80;99.90
14170;DHT22;63889;50.596;8.690;2024-02-04T06:47:50;9.80;99.90
14170;DHT22;63889;50.596;8.690;2024-02-04T06:50:16;9.90;99.90
14170;DHT22;63889;50.596;8.690;2024-02-04T06:52:42;9.90;99.90
14170;DHT22;63889;50.596;8.690;2024-02-04T06:55:09;9.90;99.90
14170;DHT22;63889;50.596;8.690;2024-02-04T06:57:35;9.90;99.90
14170;DHT22;63889;50.596;8.690;2024-02-04T07:00:01;9.80;99.90
14170;DHT22;63889;50.596;8.690;2024-02-04T07:02:27;9.80;99.90
14170;DHT22;63889;50.596;8.690;2024-02-04T07:04:53;9.80;99.90
14170;DHT22;63889;50.596;8.690;2024-02-04T07:07:18;9.80;99.90
14170;DHT22;63889;50.596;8.690;2024-02-04T07:09:44;9.80;99.90
14170;DHT22;63889;50.596;8.690;2024-02-04T07:12:09;9.80;99.90
14170;DHT22;63889;50.596;8.690;2024-02-04T07:14:35;9.90;99.90
14170;DHT22;63889;50.596;8.690;2024-02-04T07:17:00;9.90;99.90
14170;DHT22;63889;50.596;8.690;2024-02-04T07:19:26;9.90;99.90
14170;DHT22;63889;50.596;8.690;2024-02-04T07:21:52;9.90;99.90
14170;DHT22;63889;50.596;8.690;2024-02-04T07:24:17;9.90;99.90
14170;DHT22;63889;50.596;8.690;2024-02-04T07:26:44;9.90;99.90
14170;DHT22;63889;50.596;8.690;2024-02-04T07:29:10;10.00;99.90
14170;DHT22;63889;50.596;8.690;2024-02-04T07:31:37;10.00;99.90
14170;DHT22;63889;50.596;8.690;2024-02-04T07:34:03;10.00;99.90
14170;DHT22;63889;50.596;8.690;2024-02-04T07:36:29;10.00;99.90
14170;DHT22;63889;50.596;8.690;2024-02-04T07:38:54;9.90;99.90
14170;DHT22;63889;50.596;8.690;2024-02-04T07:41:20;9.90;99.90
14170;DHT22;63889;50.596;8.690;2024-02-04T07:43:45;9.90;99.90
14170;DHT22;63889;50.596;8.690;2024-02-04T07:46:13;9.90;99.90
14170;DHT22;63889;50.596;8.690;2024-02-04T07:48:39;9.90;99.90
14170;DHT22;63889;50.596;8.690;2024-02-04T07:51:05;9.90;99.90
14170;DHT22;63889;50.596;8.690;2024-02-04T07:53:31;9.90;99.90
14170;DHT22;63889;50.596;8.690;2024-02-04T07:55:57;9.90;99.90
14170;DHT22;63889;50.596;8.690;2024-02-04T07:58:22;10.00;99.90
14170;DHT22;63889;50.596;8.690;2024-02-04T08:00:48;9.90;99.90
14170;DHT22;63889;50.596;8.690;2024-02-04T08:03:14;9.90;99.90
14170;DHT22;63889;50.596;8.690;2024-02-04T08:05:39;9.90;99.90
14170;DHT22;63889;50.596;8.690;2024-02-04T08:08:05;9.80;99.90
14170;DHT22;63889;50.596;8.690;2024-02-04T08:10:30;9.80;99.90
14170;DHT22;63889;50.596;8.690;2024-02-04T08:12:56;9.80;99.90
14170;DHT22;63889;50.596;8.690;2024-02-04T08:15:23;9.90;99.90
14170;DHT22;63889;50.596;8.690;2024-02-04T08:17:48;9.90;99.90
14170;DHT22;63889;50.596;8.690;2024-02-04T08:20:14;9.90;99.90
14170;DHT22;63889;50.596;8.690;2024-02-04T08:22:39;9.90;99.90
14170;DHT22;63889;50.596;8.690;2024-02-04T08:25:05;9.90;99.90
14170;DHT22;63889;50.596;8.690;2024-02-04T08:27:31;9.90;99.90
14170;DHT22;63889;50.596;8.690;2024-02-04T08:29:57;10.00;99.90
14170;DHT22;63889;50.596;8.690;2024-02-04T08:32:22;10.00;99.90
14170;DHT22;63889;50.596;8.690;2024-02-04T08:34:48;10.00;99.90
14170;DHT22;63889;50.596;8.690;2024-02-04T08:37:13;10.00;99.90
14170;DHT22;63889;50.596;8.690;2024-02-04T08:39:39;10.00;99.90
14170;DHT22;63889;50.596;8.690;2024-02-04T08:42:05;9.90;99.90
14170;DHT22;63889;50.596;8.690;2024-02-04T08:44:30;9.90;99.90
14170;DHT22;63889;50.596;8.690;2024-02-04T08:46:56;9.90;99.90
14170;DHT22;63889;50.596;8.690;2024-02-04T08:49:22;9.90;99.90
14170;DHT22;63889;50.596;8.690;2024-02-04T08:51:47;9.90;99.90
14170;DHT22;63889;50.596;8.690;2024-02-04T08:54:13;10.00;99.90
14170;DHT22;63889;50.596;8.690;2024-02-04T08:56:38;10.00;99.90
14170;DHT22;63889;50.596;8.690;2024-02-04T08:59:04;10.00;99.90
14170;DHT22;63889;50.596;8.690;2024-02-04T09:01:31;10.00;99.90
14170;DHT22;63889;50.596;8.690;2024-02-04T09:03:57;10.00;99.90
14170;DHT22;63889;50.596;8.690;2024-02-04T09:06:22;9.90;99.90
14170;DHT22;63889;50.596;8.690;2024-02-04T09:08:48;10.00;99.90
14170;DHT22;63889;50.596;8.690;2024-02-04T09:11:13;10.00;99.90
14170;DHT22;63889;50.596;8.690;2024-02-04T09:13:44;10.00;99.90
14170;DHT22;63889;50.596;8.690;2024-02-04T09:16:10;10.00;99.90
14170;DHT22;63889;50.596;8.690;2024-02-04T09:18:36;10.00;99.90
14170;DHT22;63889;50.596;8.690;2024-02-04T09:21:02;9.90;99.90
14170;DHT22;63889;50.596;8.690;2024-02-04T09:23:28;9.90;99.90
14170;DHT22;63889;50.596;8.690;2024-02-04T09:25:53;9.90;99.90
14170;DHT22;63889;50.596;8.690;2024-02-04T09:28:19;9.90;99.90
14170;DHT22;63889;50.596;8.690;2024-02-04T09:30:44;10.00;99.90
14170;DHT22;63889;50.596;8.690;2024-02-04T09:33:10;10.00;99.90
14170;DHT22;63889;50.596;8.690;2024-02-04T09:35:35;10.00;99.90
14170;DHT22;63889;50.596;8.690;2024-02-04T09:38:01;10.00;99.90
14170;DHT22;63889;50.596;8.690;2024-02-04T09:40:26;9.90;99.90
14170;DHT22;63889;50.596;8.690;2024-02-04T09:42:52;9.90;99.90
14170;DHT22;63889;50.596;8.690;2024-02-04T09:45:19;9.90;99.90
14170;DHT22;63889;50.596;8.690;2024-02-04T09:47:45;9.90;99.90
14170;DHT22;63889;50.596;8.690;2024-02-04T09:50:11;9.90;99.90
14170;DHT22;63889;50.596;8.690;2024-02-04T09:52:40;9.90;99.90
14170;DHT22;63889;50.596;8.690;2024-02-04T09:55:07;9.90;99.90
14170;DHT22;63889;50.596;8.690;2024-02-04T09:57:34;9.90;99.90
14170;DHT22;63889;50.596;8.690;2024-02-04T10:00:02;10.00;99.90
14170;DHT22;63889;50.596;8.690;2024-02-04T10:02:30;10.00;99.90
14170;DHT22;63889;50.596;8.690;2024-02-04T10:04:57;10.00;99.90
14170;DHT22;63889;50.596;8.690;2024-02-04T10:07:23;10.00;99.90
14170;DHT22;63889;50.596;8.690;2024-02-04T10:09:50;10.10;99.90
14170;DHT22;63889;50.596;8.690;2024-02-04T10:12:15;10.10;99.90
14170;DHT22;63889;50.596;8.690;2024-02-04T10:14:42;10.10;99.90
14170;DHT22;63889;50.596;8.690;2024-02-04T10:17:07;10.20;99.90
14170;DHT22;63889;50.596;8.690;2024-02-04T10:19:33;10.20;99.90
14170;DHT22;63889;50.596;8.690;2024-02-04T10:22:02;10.20;99.90
14170;DHT22;63889;50.596;8.690;2024-02-04T10:24:28;10.20;99.90
14170;DHT22;63889;50.596;8.690;2024-02-04T10:26:57;10.20;99.90
14170;DHT22;63889;50.596;8.690;2024-02-04T10:29:24;10.20;99.90
14170;DHT22;63889;50.596;8.690;2024-02-04T10:31:54;10.30;99.90
14170;DHT22;63889;50.596;8.690;2024-02-04T10:34:20;10.20;99.90
14170;DHT22;63889;50.596;8.690;2024-02-04T10:36:46;10.20;99.90
14170;DHT22;63889;50.596;8.690;2024-02-04T10:39:11;10.30;99.90
14170;DHT22;63889;50.596;8.690;2024-02-04T10:41:44;10.20;99.90
14170;DHT22;63889;50.596;8.690;2024-02-04T10:44:16;10.30;99.90
14170;DHT22;63889;50.596;8.690;2024-02-04T10:46:42;10.30;99.90
14170;DHT22;63889;50.596;8.690;2024-02-04T10:49:14;10.40;99.90
14170;DHT22;63889;50.596;8.690;2024-02-04T10:51:41;10.40;99.90
14170;DHT22;63889;50.596;8.690;2024-02-04T10:54:07;10.40;99.90
14170;DHT22;63889;50.596;8.690;2024-02-04T10:56:45;10.50;99.90
14170;DHT22;63889;50.596;8.690;2024-02-04T10:59:13;10.50;99.90
14170;DHT22;63889;50.596;8.690;2024-02-04T11:01:40;10.60;99.90
14170;DHT22;63889;50.596;8.690;2024-02-04T11:04:09;10.60;99.90
14170;DHT22;63889;50.596;8.690;2024-02-04T11:06:36;10.60;99.90
14170;DHT22;63889;50.596;8.690;2024-02-04T11:09:03;10.60;99.90
14170;DHT22;63889;50.596;8.690;2024-02-04T11:11:31;10.60;99.90
14170;DHT22;63889;50.596;8.690;2024-02-04T11:14:00;10.80;99.90
14170;DHT22;63889;50.596;8.690;2024-02-04T11:27:08;10.80;99.90
14170;DHT22;63889;50.596;8.690;2024-02-04T11:29:33;10.80;99.90
14170;DHT22;63889;50.596;8.690;2024-02-04T11:32:01;10.90;99.90
14170;DHT22;63889;50.596;8.690;2024-02-04T11:34:27;10.80;99.90
14170;DHT22;63889;50.596;8.690;2024-02-04T11:36:53;10.80;99.90
14170;DHT22;63889;50.596;8.690;2024-02-04T11:39:19;10.70;99.90
14170;DHT22;63889;50.596;8.690;2024-02-04T11:41:48;10.70;99.90
14170;DHT22;63889;50.596;8.690;2024-02-04T11:44:24;10.70;99.90
14170;DHT22;63889;50.596;8.690;2024-02-04T11:46:51;10.70;99.90
14170;DHT22;63889;50.596;8.690;2024-02-04T11:49:18;10.70;99.90
14170;DHT22;63889;50.596;8.690;2024-02-04T11:51:48;10.70;99.90
14170;DHT22;63889;50.596;8.690;2024-02-04T11:54:16;10.70;99.90
14170;DHT22;63889;50.596;8.690;2024-02-04T11:56:45;10.80;99.90
14170;DHT22;63889;50.596;8.690;2024-02-04T11:59:11;10.80;99.90
14170;DHT22;63889;50.596;8.690;2024-02-04T12:01:38;10.80;99.90
14170;DHT22;63889;50.596;8.690;2024-02-04T12:04:15;10.80;99.90
14170;DHT22;63889;50.596;8.690;2024-02-04T12:06:41;10.90;99.90
14170;DHT22;63889;50.596;8.690;2024-02-04T12:09:10;10.90;99.90
14170;DHT22;63889;50.596;8.690;2024-02-04T12:11:37;10.90;99.90
14170;DHT22;63889;50.596;8.690;2024-02-04T12:14:04;10.80;99.90
14170;DHT22;63889;50.596;8.690;2024-02-04T12:16:31;10.80;99.90
14170;DHT22;63889;50.596;8.690;2024-02-04T12:18:58;10.70;99.90
14170;DHT22;63889;50.596;8.690;2024-02-04T12:21:24;10.70;99.90
14170;DHT22;63889;50.596;8.690;2024-02-04T12:23:50;10.70;99.90
14170;DHT22;63889;50.596;8.690;2024-02-04T12:26:16;10.70;99.90
14170;DHT22;63889;50.596;8.690;2024-02-04T12:28:42;10.70;99.90
14170;DHT22;63889;50.596;8.690;2024-02-04T12:31:15;10.70;99.90
14170;DHT22;63889;50.596;8.690;2024-02-04T12:33:41;10.80;99.90
14170;DHT22;63889;50.596;8.690;2024-02-04T12:36:07;10.80;99.90
14170;DHT22;63889;50.596;8.690;2024-02-04T12:38:33;10.80;99.90
14170;DHT22;63889;50.596;8.690;2024-02-04T12:41:02;10.80;99.90
14170;DHT22;63889;50.596;8.690;2024-02-04T12:43:28;10.80;99.90
14170;DHT22;63889;50.596;8.690;2024-02-04T12:45:56;10.80;99.90
14170;DHT22;63889;50.596;8.690;2024-02-04T12:48:22;10.80;99.90
14170;DHT22;63889;50.596;8.690;2024-02-04T12:50:51;10.80;99.90
14170;DHT22;63889;50.596;8.690;2024-02-04T12:53:19;10.80;99.90
14170;DHT22;63889;50.596;8.690;2024-02-04T12:55:44;10.70;99.90
14170;DHT22;63889;50.596;8.690;2024-02-04T12:58:12;10.70;99.90
14170;DHT22;63889;50.596;8.690;2024-02-04T13:00:39;10.70;99.90
14170;DHT22;63889;50.596;8.690;2024-02-04T13:03:06;10.70;99.90
14170;DHT22;63889;50.596;8.690;2024-02-04T13:05:36;10.60;99.90
14170;DHT22;63889;50.596;8.690;2024-02-04T13:08:03;10.70;99.90
14170;DHT22;63889;50.596;8.690;2024-02-04T13:10:33;10.70;99.90
14170;DHT22;63889;50.596;8.690;2024-02-04T13:13:04;10.70;99.90
14170;DHT22;63889;50.596;8.690;2024-02-04T13:15:43;10.70;99.90
14170;DHT22;63889;50.596;8.690;2024-02-04T13:18:09;10.80;99.90
14170;DHT22;63889;50.596;8.690;2024-02-04T13:20:37;10.80;99.90
14170;DHT22;63889;50.596;8.690;2024-02-04T13:23:03;10.80;99.90
14170;DHT22;63889;50.596;8.690;2024-02-04T13:25:30;10.80;99.90
14170;DHT22;63889;50.596;8.690;2024-02-04T13:27:57;10.70;99.90
14170;DHT22;63889;50.596;8.690;2024-02-04T13:30:22;10.80;99.90
14170;DHT22;63889;50.596;8.690;2024-02-04T13:32:48;10.80;99.90
14170;DHT22;63889;50.596;8.690;2024-02-04T13:35:13;10.80;99.90
14170;DHT22;63889;50.596;8.690;2024-02-04T13:37:43;10.80;99.90
14170;DHT22;63889;50.596;8.690;2024-02-04T13:40:17;10.80;99.90
14170;DHT22;63889;50.596;8.690;2024-02-04T13:42:43;10.70;99.90
14170;DHT22;63889;50.596;8.690;2024-02-04T13:45:09;10.70;99.90
14170;DHT22;63889;50.596;8.690;2024-02-04T13:47:35;10.70;99.90
14170;DHT22;63889;50.596;8.690;2024-02-04T13:50:01;10.80;99.90
14170;DHT22;63889;50.596;8.690;2024-02-04T13:52:28;10.80;99.90
14170;DHT22;63889;50.596;8.690;2024-02-04T13:54:53;10.80;99.90
14170;DHT22;63889;50.596;8.690;2024-02-04T13:57:19;10.80;99.90
14170;DHT22;63889;50.596;8.690;2024-02-04T13:59:45;10.80;99.90
14170;DHT22;63889;50.596;8.690;2024-02-04T14:02:10;10.80;99.90
14170;DHT22;63889;50.596;8.690;2024-02-04T14:04:36;10.80;99.90
14170;DHT22;63889;50.596;8.690;2024-02-04T14:07:02;10.80;99.90
14170;DHT22;63889;50.596;8.690;2024-02-04T14:09:28;10.80;99.90
14170;DHT22;63889;50.596;8.690;2024-02-04T14:11:54;10.70;99.90
14170;DHT22;63889;50.596;8.690;2024-02-04T14:14:20;10.80;99.90
14170;DHT22;63889;50.596;8.690;2024-02-04T14:16:46;10.80;99.90
14170;DHT22;63889;50.596;8.690;2024-02-04T14:19:12;10.70;99.90
14170;DHT22;63889;50.596;8.690;2024-02-04T14:21:39;10.80;99.90
14170;DHT22;63889;50.596;8.690;2024-02-04T14:24:05;10.80;99.90
14170;DHT22;63889;50.596;8.690;2024-02-04T14:26:31;10.70;99.90
14170;DHT22;63889;50.596;8.690;2024-02-04T14:28:56;10.70;99.90
14170;DHT22;63889;50.596;8.690;2024-02-04T14:31:22;10.70;99.90
14170;DHT22;63889;50.596;8.690;2024-02-04T14:33:47;10.70;99.90
14170;DHT22;63889;50.596;8.690;2024-02-04T14:36:13;10.70;99.90
14170;DHT22;63889;50.596;8.690;2024-02-04T14:38:39;10.70;99.90
14170;DHT22;63889;50.596;8.690;2024-02-04T14:41:04;10.70;99.90
14170;DHT22;63889;50.596;8.690;2024-02-04T14:43:30;10.70;99.90
14170;DHT22;63889;50.596;8.690;2024-02-04T14:45:56;10.60;99.90
14170;DHT22;63889;50.596;8.690;2024-02-04T14:48:21;10.60;99.90
14170;DHT22;63889;50.596;8.690;2024-02-04T14:50:47;10.70;99.90
14170;DHT22;63889;50.596;8.690;2024-02-04T14:53:13;10.70;99.90
14170;DHT22;63889;50.596;8.690;2024-02-04T14:55:39;10.70;99.90
14170;DHT22;63889;50.596;8.690;2024-02-04T14:58:05;10.70;99.90
14170;DHT22;63889;50.596;8.690;2024-02-04T15:00:31;10.70;99.90
14170;DHT22;63889;50.596;8.690;2024-02-04T15:02:57;10.70;99.90
14170;DHT22;63889;50.596;8.690;2024-02-04T15:05:25;10.70;99.90
14170;DHT22;63889;50.596;8.690;2024-02-04T15:07:50;10.70;99.90
14170;DHT22;63889;50.596;8.690;2024-02-04T15:10:20;10.60;99.90
14170;DHT22;63889;50.596;8.690;2024-02-04T15:12:46;10.60;99.90
14170;DHT22;63889;50.596;8.690;2024-02-04T15:15:12;10.70;99.90
14170;DHT22;63889;50.596;8.690;2024-02-04T15:17:38;10.70;99.90
14170;DHT22;63889;50.596;8.690;2024-02-04T15:20:04;10.70;99.90
14170;DHT22;63889;50.596;8.690;2024-02-04T15:22:30;10.70;99.90
14170;DHT22;63889;50.596;8.690;2024-02-04T15:24:56;10.70;99.90
14170;DHT22;63889;50.596;8.690;2024-02-04T15:27:24;10.80;99.90
14170;DHT22;63889;50.596;8.690;2024-02-04T15:29:49;10.80;99.90
14170;DHT22;63889;50.596;8.690;2024-02-04T15:32:15;10.80;99.90
14170;DHT22;63889;50.596;8.690;2024-02-04T15:34:42;10.80;99.90
14170;DHT22;63889;50.596;8.690;2024-02-04T15:37:08;10.90;99.90
14170;DHT22;63889;50.596;8.690;2024-02-04T15:39:34;10.90;99.90
14170;DHT22;63889;50.596;8.690;2024-02-04T15:42:03;10.90;99.90
14170;DHT22;63889;50.596;8.690;2024-02-04T15:44:29;10.90;99.90